createdAt,value
2023-08-11T00:00:00.183Z,92
2023-08-11T00:05:00.146Z,92.4
2023-08-11T00:10:00.149Z,92.5
2023-08-11T00:15:00.147Z,92.6
2023-08-11T00:20:00.111Z,92.6
2023-08-11T00:25:00.138Z,92.3
2023-08-11T00:30:00.165Z,92.3
2023-08-11T00:35:00.135Z,92.7
2023-08-11T00:40:00.123Z,93.4
2023-08-11T00:45:00.148Z,93.9
2023-08-11T00:50:00.095Z,94
2023-08-11T00:55:00.137Z,94.3
2023-08-11T01:00:00.222Z,94.4
2023-08-11T01:05:00.140Z,94.5
2023-08-11T01:10:00.152Z,95
2023-08-11T01:15:00.160Z,95.6
2023-08-11T01:20:00.131Z,95.9
2023-08-11T01:25:00.160Z,96
2023-08-11T01:30:00.180Z,96.3
2023-08-11T01:35:00.139Z,96.5
2023-08-11T01:40:00.193Z,96.7
2023-08-11T01:45:00.261Z,97.2
2023-08-11T01:50:00.222Z,97.4
2023-08-11T01:55:00.246Z,97.7
2023-08-11T02:00:00.190Z,97.9
2023-08-11T02:05:00.164Z,98
2023-08-11T02:10:00.137Z,98.4
2023-08-11T02:15:00.137Z,98.5
2023-08-11T02:20:00.145Z,98.9
2023-08-11T02:25:00.119Z,99.2
2023-08-11T02:30:00.187Z,99.4
2023-08-11T02:35:00.222Z,99.7
2023-08-11T02:40:00.134Z,99.9
2023-08-11T02:45:00.122Z,99.9
2023-08-11T02:50:00.127Z,99.9
2023-08-11T02:55:00.155Z,99.9
2023-08-11T03:00:00.211Z,99.9
2023-08-11T03:05:00.144Z,99.9
2023-08-11T03:10:00.151Z,99.9
2023-08-11T03:15:00.226Z,99.9
2023-08-11T03:20:00.163Z,99.9
2023-08-11T03:25:00.213Z,99.9
2023-08-11T03:30:00.164Z,99.9
2023-08-11T03:35:00.138Z,99.9
2023-08-11T03:40:00.124Z,99.9
2023-08-11T03:45:00.175Z,99.9
2023-08-11T03:50:00.185Z,99.9
2023-08-11T03:55:00.172Z,99.9
2023-08-11T04:00:00.162Z,99.9
2023-08-11T04:05:00.136Z,99.9
2023-08-11T04:10:00.133Z,99.9
2023-08-11T04:15:00.196Z,99.9
2023-08-11T04:20:00.182Z,99.9
2023-08-11T04:25:00.173Z,99.9
2023-08-11T04:30:00.139Z,99.9
2023-08-11T04:35:00.160Z,99.9
2023-08-11T04:40:00.199Z,99.9
2023-08-11T04:45:00.144Z,97.7
2023-08-11T04:50:00.169Z,94.7
2023-08-11T04:55:00.158Z,91.2
2023-08-11T05:00:00.178Z,84.5
2023-08-11T05:05:00.155Z,75.8
2023-08-11T05:10:00.145Z,67.5
2023-08-11T05:15:00.142Z,62.1
2023-08-11T05:20:00.341Z,61.1
2023-08-11T05:25:00.113Z,55.7
2023-08-11T05:30:00.180Z,54.6
2023-08-11T05:35:00.231Z,49.6
2023-08-11T05:40:00.162Z,46.4
2023-08-11T05:45:00.117Z,45.4
2023-08-11T05:50:00.116Z,46.2
2023-08-11T05:55:00.159Z,45
2023-08-11T06:00:00.316Z,43.2
2023-08-11T06:05:00.177Z,40.3
2023-08-11T06:10:02.364Z,38.9
2023-08-11T06:15:00.149Z,37.8
2023-08-11T06:20:00.197Z,36.9
2023-08-11T06:25:00.117Z,36.1
2023-08-11T06:30:00.217Z,35.3
2023-08-11T06:35:00.147Z,33.3
2023-08-11T06:40:00.191Z,33.6
2023-08-11T06:45:00.136Z,32.6
2023-08-11T06:50:00.143Z,31.2
2023-08-11T06:55:00.161Z,31.3
2023-08-11T07:00:00.203Z,31.6
2023-08-11T07:05:00.164Z,29.6
2023-08-11T07:10:03.500Z,29.4
2023-08-11T07:15:00.183Z,29.5
2023-08-11T07:20:00.202Z,29
2023-08-11T07:25:00.130Z,28.7
2023-08-11T07:30:00.147Z,29.1
2023-08-11T07:35:00.207Z,28.6
2023-08-11T07:40:00.172Z,28.4
2023-08-11T07:45:00.213Z,28.5
2023-08-11T07:50:00.176Z,28
2023-08-11T07:55:00.234Z,27.2
2023-08-11T08:00:00.218Z,26.1
2023-08-11T08:05:09.809Z,26.3
2023-08-11T08:10:00.146Z,25.8
2023-08-11T08:15:00.203Z,25.7
2023-08-11T08:20:00.150Z,25.2
2023-08-11T08:25:00.143Z,24.7
2023-08-11T08:30:00.175Z,24.7
2023-08-11T08:35:00.156Z,24.3
2023-08-11T08:40:00.200Z,24.1
2023-08-11T08:45:00.157Z,23.1
2023-08-11T08:50:00.221Z,24.4
2023-08-11T08:55:00.221Z,24.4
2023-08-11T09:00:00.216Z,24.1
2023-08-11T09:05:00.136Z,24.5
2023-08-11T09:10:00.120Z,24.6
2023-08-11T09:15:00.229Z,24.2
2023-08-11T09:20:00.146Z,24.7
2023-08-11T09:25:00.143Z,25.2
2023-08-11T09:30:00.199Z,25.2
2023-08-11T09:35:00.199Z,25
2023-08-11T09:40:00.232Z,24.8
2023-08-11T09:45:00.116Z,24.6
2023-08-11T09:50:00.257Z,24.4
2023-08-11T09:55:00.177Z,24.4
2023-08-11T10:00:00.195Z,24.3
2023-08-11T10:05:00.112Z,24.4
2023-08-11T10:10:00.115Z,23.6
2023-08-11T10:15:00.153Z,24.2
2023-08-11T10:20:00.196Z,24.5
2023-08-11T10:25:00.148Z,24.4
2023-08-11T10:30:00.175Z,24.9
2023-08-11T10:35:00.148Z,24.7
2023-08-11T10:40:01.100Z,25
2023-08-11T10:45:00.172Z,25.1
2023-08-11T10:50:00.120Z,24.4
2023-08-11T10:55:00.187Z,25
2023-08-11T11:00:00.230Z,24.8
2023-08-11T11:05:00.165Z,24.9
2023-08-11T11:10:00.188Z,24.8
2023-08-11T11:15:00.140Z,24.4
2023-08-11T11:20:02.799Z,24.7
2023-08-11T11:25:00.119Z,25.5
2023-08-11T11:30:00.256Z,25.8
2023-08-11T11:35:00.141Z,25.7
2023-08-11T11:40:00.192Z,26.1
2023-08-11T11:45:01.731Z,26.1
2023-08-11T11:50:00.096Z,26.6
2023-08-11T11:55:00.164Z,27
2023-08-11T12:00:00.264Z,27.2
2023-08-11T12:05:00.305Z,27.7
2023-08-11T12:10:00.244Z,28.4
2023-08-11T12:15:00.190Z,29.6
2023-08-11T12:20:00.112Z,30.3
2023-08-11T12:25:00.112Z,32.2
2023-08-11T12:30:00.158Z,32.4
2023-08-11T12:35:00.196Z,33.4
2023-08-11T12:40:00.157Z,33.9
2023-08-11T12:45:00.146Z,34.6
2023-08-11T12:50:00.142Z,34.2
2023-08-11T12:55:00.178Z,34.4
2023-08-11T13:00:00.245Z,34.5
2023-08-11T13:05:00.143Z,34.9
2023-08-11T13:10:00.154Z,34.9
2023-08-11T13:15:00.241Z,34.8
2023-08-11T13:20:00.181Z,35.4
2023-08-11T13:25:00.127Z,36
2023-08-11T13:30:00.194Z,36.5
2023-08-11T13:35:00.142Z,36.9
2023-08-11T13:40:00.278Z,36.8
2023-08-11T13:45:00.130Z,36.2
2023-08-11T13:50:00.125Z,36.2
2023-08-11T13:55:00.184Z,36.4
2023-08-11T14:00:00.340Z,36.7
2023-08-11T14:05:00.270Z,36.8
2023-08-11T14:10:00.167Z,36.5
2023-08-11T14:15:00.205Z,36
2023-08-11T14:20:00.148Z,36.2
2023-08-11T14:25:00.185Z,56.6
2023-08-11T14:30:00.165Z,35.8
2023-08-11T14:35:00.165Z,36.2
2023-08-11T14:40:00.130Z,36.2
2023-08-11T14:45:00.196Z,36.2
2023-08-11T14:50:00.187Z,36
2023-08-11T14:55:00.169Z,34.9
2023-08-11T15:00:00.182Z,36.1
2023-08-11T15:05:00.158Z,36.1
2023-08-11T15:10:00.185Z,36.2
2023-08-11T15:15:00.194Z,36.4
2023-08-11T15:20:00.182Z,36.2
2023-08-11T15:25:00.140Z,36.5
2023-08-11T15:30:00.144Z,36.6
2023-08-11T15:35:00.134Z,36.6
2023-08-11T15:40:00.152Z,36.7
2023-08-11T15:45:00.190Z,36.4
2023-08-11T15:50:01.432Z,36.3
2023-08-11T15:55:00.315Z,35.1
2023-08-11T16:00:00.210Z,36.4
2023-08-11T16:05:00.112Z,36.7
2023-08-11T16:10:00.184Z,36.6
2023-08-11T16:15:00.135Z,36.6
2023-08-11T16:20:00.213Z,36.9
2023-08-11T16:25:00.132Z,36.8
2023-08-11T16:30:00.224Z,37.1
2023-08-11T20:35:00.180Z,37.7
2023-08-11T20:40:00.282Z,37.7
2023-08-11T20:45:00.167Z,37.7
2023-08-11T20:50:00.205Z,37.7
2023-08-11T20:55:00.145Z,37.7
2023-08-11T21:00:00.262Z,37.7
2023-08-11T21:05:00.136Z,37.7
2023-08-11T21:10:00.119Z,37.7
2023-08-11T21:15:00.233Z,37.7
2023-08-11T21:20:00.152Z,37.7
2023-08-11T21:25:00.169Z,37.7
2023-08-11T21:30:00.131Z,37.7
2023-08-11T21:35:00.178Z,37.7
2023-08-11T21:40:00.221Z,37.7
2023-08-11T21:45:00.148Z,37.7
2023-08-11T21:50:00.131Z,37.7
2023-08-11T21:55:00.137Z,37.7
2023-08-11T22:00:00.282Z,37.7
2023-08-11T22:05:00.145Z,37.7
2023-08-11T22:10:00.127Z,37.7
2023-08-11T22:15:00.173Z,37.7
2023-08-11T22:20:00.195Z,37.7
2023-08-11T22:25:00.145Z,37.7
2023-08-11T22:30:00.379Z,37.7
2023-08-11T22:35:00.143Z,37.7
2023-08-11T22:40:00.204Z,37.7
2023-08-11T22:45:00.117Z,37.7
2023-08-11T22:50:00.164Z,37.7
2023-08-11T22:55:00.185Z,37.7
2023-08-11T23:00:00.215Z,37.7
2023-08-11T23:05:00.197Z,37.7
2023-08-11T23:10:00.177Z,37.7
2023-08-11T23:15:00.141Z,37.7
2023-08-11T23:20:00.176Z,37.7
2023-08-11T23:25:00.144Z,37.7
2023-08-11T23:30:00.154Z,37.7
2023-08-11T23:35:00.165Z,37.7
2023-08-11T23:40:00.215Z,37.7
2023-08-11T23:45:00.128Z,37.7
2023-08-11T23:50:00.117Z,37.7
2023-08-11T23:55:00.148Z,37.7
